Time;durP1;ratioP1;P1;durP2;ratioP2;P2;SDS_P1;SDS_P2;PMS_P1;PMS_P2;Temp;Humidity;BMP_temperature;BMP_pressure;BME280_temperature;BME280_humidity;BME280_pressure;Samples;Min_cycle;Max_cycle;Signal;HPM_P1;HPM_P2
2024/04/20 00:00:23;;;;;;;7.90;3.17;;;;;;;7.58;100.00;100046.38;5415026;26;20319;-79
2024/04/20 00:02:50;;;;;;;8.93;3.00;;;;;;;7.56;100.00;100052.03;5414474;26;20817;-79
2024/04/20 00:05:15;;;;;;;5.75;2.72;;;;;;;7.54;100.00;100051.41;5414854;26;20339;-79
2024/04/20 00:07:41;;;;;;;6.85;2.40;;;;;;;7.56;100.00;100053.91;5406288;26;20426;-80
2024/04/20 00:10:07;;;;;;;8.52;2.63;;;;;;;7.52;100.00;100047.31;5414532;26;20320;-80
2024/04/20 00:12:32;;;;;;;9.50;3.20;;;;;;;7.54;100.00;100059.50;5414804;26;20315;-79
2024/04/20 00:14:58;;;;;;;7.73;2.80;;;;;;;7.56;100.00;100053.91;5414330;26;20320;-80
2024/04/20 00:17:23;;;;;;;6.17;2.70;;;;;;;7.61;100.00;100067.47;5414399;26;20359;-80
2024/04/20 00:19:49;;;;;;;9.50;2.85;;;;;;;7.62;100.00;100067.25;5383000;26;20402;-80
2024/04/20 00:22:14;;;;;;;11.47;2.80;;;;;;;7.62;100.00;100058.34;5414412;26;20319;-80
2024/04/20 00:24:39;;;;;;;8.93;2.40;;;;;;;7.63;100.00;100068.09;5414369;26;20479;-80
2024/04/20 00:27:08;;;;;;;7.10;2.53;;;;;;;7.62;100.00;100066.44;5414247;26;20342;-80
2024/04/20 00:29:33;;;;;;;8.30;3.13;;;;;;;7.57;100.00;100047.44;5414382;26;20344;-80
2024/04/20 00:31:59;;;;;;;8.07;2.30;;;;;;;7.57;100.00;100053.69;5414041;26;20316;-80
2024/04/20 00:34:26;;;;;;;12.30;3.33;;;;;;;7.54;100.00;100058.72;5383021;26;20363;-80
2024/04/20 00:36:51;;;;;;;7.97;2.65;;;;;;;7.54;100.00;100058.72;5414158;26;20834;-79
2024/04/20 00:39:17;;;;;;;10.82;2.53;;;;;;;7.51;100.00;100062.69;5414213;26;20448;-80
2024/04/20 00:41:49;;;;;;;12.27;2.67;;;;;;;7.48;100.00;100067.72;5382966;26;20410;-80
2024/04/20 00:44:15;;;;;;;8.13;2.20;;;;;;;7.45;100.00;100062.78;5401303;26;20316;-80
2024/04/20 00:46:41;;;;;;;8.18;2.50;;;;;;;7.46;100.00;100065.25;5382693;26;20412;-80
2024/04/20 00:49:08;;;;;;;10.50;2.40;;;;;;;7.51;100.00;100075.38;5415496;26;20360;-80
2024/04/20 00:51:34;;;;;;;6.70;2.88;;;;;;;7.53;100.00;100075.94;5386264;26;20371;-80
2024/04/20 00:54:00;;;;;;;8.65;2.97;;;;;;;7.53;100.00;100073.25;5386482;26;20323;-79
2024/04/20 00:56:27;;;;;;;7.47;2.45;;;;;;;7.54;100.00;100074.91;5386149;26;20352;-80
2024/04/20 00:58:52;;;;;;;10.60;2.50;;;;;;;7.51;100.00;100076.16;5417288;26;20843;-81
2024/04/20 01:01:18;;;;;;;8.55;2.53;;;;;;;7.48;100.00;100073.94;5417528;26;20341;-80
2024/04/20 01:03:43;;;;;;;8.48;2.28;;;;;;;7.49;100.00;100089.06;5403945;26;20331;-80
2024/04/20 01:06:09;;;;;;;9.90;2.27;;;;;;;7.51;100.00;100086.94;5417376;26;20332;-80
2024/04/20 01:08:34;;;;;;;10.60;2.30;;;;;;;7.51;100.00;100086.94;5417310;26;20398;-79
2024/04/20 01:11:00;;;;;;;12.13;2.90;;;;;;;7.52;100.00;100085.91;5417254;26;20320;-79
2024/04/20 01:13:28;;;;;;;11.20;3.00;;;;;;;7.53;100.00;100084.84;5417384;26;20873;-80
2024/04/20 01:15:54;;;;;;;10.73;3.17;;;;;;;7.53;100.00;100087.53;5417213;26;20413;-80
2024/04/20 01:18:20;;;;;;;13.97;2.83;;;;;;;7.50;100.00;100084.50;5417236;26;20327;-80
2024/04/20 01:20:45;;;;;;;12.33;2.53;;;;;;;7.50;100.00;100093.41;5417126;26;20375;-79
2024/04/20 01:23:12;;;;;;;11.83;3.17;;;;;;;7.49;100.00;100099.03;5417196;26;20320;-80
2024/04/20 01:25:50;;;;;;;9.17;2.77;;;;;;;7.50;100.00;100088.03;5417251;26;20377;-80
2024/04/20 01:28:17;;;;;;;6.32;2.47;;;;;;;7.50;100.00;100095.28;5417071;26;20728;-79
2024/04/20 01:30:42;;;;;;;27.60;14.23;;;;;;;7.49;100.00;100091.75;5417109;26;20822;-79
2024/04/20 01:33:07;;;;;;;9.98;2.85;;;;;;;7.39;100.00;100088.81;5416791;26;20332;-80
2024/04/20 01:35:33;;;;;;;10.70;3.00;;;;;;;7.37;100.00;100103.59;5417040;26;20323;-79
2024/04/20 01:37:58;;;;;;;11.47;3.03;;;;;;;7.35;100.00;100094.91;5416908;26;20315;-79
2024/04/20 01:40:23;;;;;;;9.20;2.57;;;;;;;7.34;100.00;100110.28;5416941;26;20324;-79
2024/04/20 01:42:49;;;;;;;14.37;3.00;;;;;;;7.35;100.00;100109.19;5385334;26;20363;-79
2024/04/20 01:45:14;;;;;;;12.00;3.07;;;;;;;7.36;100.00;100105.47;5416836;26;20418;-79
2024/04/20 01:47:40;;;;;;;9.93;2.47;;;;;;;7.37;100.00;100117.06;5385424;26;20358;-80
2024/04/20 01:50:06;;;;;;;9.80;2.80;;;;;;;7.31;100.00;100119.63;5416819;26;20885;-79
2024/04/20 01:52:31;;;;;;;15.85;3.63;;;;;;;7.31;100.00;100119.63;5416712;26;20320;-80
2024/04/20 01:54:57;;;;;;;8.90;2.63;;;;;;;7.35;100.00;100121.84;5385244;26;20364;-79
2024/04/20 01:57:22;;;;;;;8.20;2.63;;;;;;;7.36;100.00;100137.81;5415591;26;20371;-79
2024/04/20 01:59:48;;;;;;;13.85;3.20;;;;;;;7.36;100.00;100132.41;5416147;26;20316;-80
2024/04/20 02:02:13;;;;;;;8.60;2.97;;;;;;;7.34;100.00;100133.72;5416024;26;20328;-80
2024/04/20 02:04:38;;;;;;;11.13;3.22;;;;;;;7.37;100.00;100141.31;5416494;26;20412;-79
2024/04/20 02:10:25;;;;;;;13.93;3.08;;;;;;;7.36;100.00;100143.19;5415178;26;20324;-80
2024/04/20 02:12:50;;;;;;;11.47;3.40;;;;;;;7.36;100.00;100140.50;5416466;26;20328;-79
2024/04/20 02:15:15;;;;;;;14.97;2.93;;;;;;;7.36;100.00;100150.47;5384964;26;20347;-79
2024/04/20 02:17:41;;;;;;;12.70;3.67;;;;;;;7.36;100.00;100145.91;5416325;26;20892;-79
2024/04/20 02:20:06;;;;;;;11.00;3.07;;;;;;;7.33;100.00;100151.75;5416168;26;20674;-80
2024/04/20 02:22:31;;;;;;;13.30;3.33;;;;;;;7.27;100.00;100153.50;5416445;26;20317;-80
2024/04/20 02:24:57;;;;;;;15.20;3.00;;;;;;;7.24;100.00;100148.53;5384699;26;20308;-79
2024/04/20 02:27:22;;;;;;;14.47;3.37;;;;;;;7.24;100.00;100159.31;5416329;26;20364;-80
2024/04/20 02:29:47;;;;;;;13.53;3.77;;;;;;;7.25;100.00;100163.69;5415874;26;20428;-80
2024/04/20 02:32:12;;;;;;;10.03;3.13;;;;;;;7.27;100.00;100164.28;5416217;26;20331;-80
2024/04/20 02:34:38;;;;;;;10.87;3.30;;;;;;;7.26;100.00;100176.09;5416151;26;20870;-79
2024/04/20 02:37:05;;;;;;;14.23;3.63;;;;;;;7.27;100.00;100166.16;5416144;26;20437;-80
2024/04/20 02:39:30;;;;;;;11.80;2.78;;;;;;;7.31;100.00;100175.41;5416207;26;20348;-79
2024/04/20 02:41:56;;;;;;;11.57;3.00;;;;;;;7.32;100.00;100168.97;5415997;26;20675;-80
2024/04/20 02:44:21;;;;;;;9.40;3.40;;;;;;;7.33;100.00;100170.63;5384373;26;20307;-80
2024/04/20 02:46:46;;;;;;;12.63;3.33;;;;;;;7.29;100.00;100167.56;5416019;26;20327;-80
2024/04/20 02:49:11;;;;;;;9.90;3.13;;;;;;;7.30;100.00;100166.53;5415954;26;20348;-80
2024/04/20 02:51:37;;;;;;;13.83;3.30;;;;;;;7.30;100.00;100166.53;5415769;26;20834;-79
2024/04/20 02:54:02;;;;;;;21.00;4.47;;;;;;;7.32;100.00;100167.09;5415729;26;20347;-79
2024/04/20 02:56:27;;;;;;;11.60;3.00;;;;;;;7.28;100.00;100167.78;5415812;26;20323;-79
2024/04/20 02:58:55;;;;;;;10.27;3.53;;;;;;;7.26;100.00;100167.19;5415456;26;20412;-80
2024/04/20 03:01:21;;;;;;;9.43;2.72;;;;;;;7.28;100.00;100170.47;5415847;26;20866;-80
2024/04/20 03:03:46;;;;;;;15.43;2.70;;;;;;;7.25;100.00;100169.06;5413928;26;20320;-80
2024/04/20 03:06:11;;;;;;;10.60;2.93;;;;;;;7.25;100.00;100170.94;5415865;26;20748;-80
2024/04/20 03:08:36;;;;;;;11.37;2.77;;;;;;;7.20;100.00;100166.25;5415545;26;20359;-80
2024/04/20 03:11:02;;;;;;;14.23;3.20;;;;;;;7.20;100.00;100174.34;5415626;26;20324;-79
2024/04/20 03:13:27;;;;;;;7.73;2.77;;;;;;;7.16;100.00;100169.63;5413908;26;20818;-79
2024/04/20 03:16:00;;;;;;;10.07;3.23;;;;;;;7.14;100.00;100172.56;5415578;26;20398;-80
2024/04/20 03:18:26;;;;;;;13.30;4.00;;;;;;;7.10;100.00;100170.56;5415563;26;20423;-80
2024/04/20 03:20:51;;;;;;;10.77;2.53;;;;;;;7.02;100.00;100171.69;5415460;26;20316;-79
2024/04/20 03:23:16;;;;;;;15.30;3.97;;;;;;;7.05;100.00;100179.31;5415469;26;20328;-79
2024/04/20 03:25:42;;;;;;;9.70;3.17;;;;;;;7.01;100.00;100180.84;5415447;26;20311;-80
2024/04/20 03:28:07;;;;;;;12.43;3.37;;;;;;;6.99;100.00;100185.63;5415104;26;20339;-79
2024/04/20 03:30:32;;;;;;;9.67;3.03;;;;;;;6.94;100.00;100185.50;5415330;26;20327;-80
2024/04/20 03:32:57;;;;;;;12.30;4.13;;;;;;;6.90;100.00;100197.75;5415098;26;20368;-80
2024/04/20 03:35:23;;;;;;;11.47;3.43;;;;;;;6.90;100.00;100196.94;5415171;26;20363;-79
2024/04/20 03:37:48;;;;;;;13.27;3.40;;;;;;;6.85;100.00;100196.81;5415162;26;20370;-79
2024/04/20 03:40:13;;;;;;;19.73;3.57;;;;;;;6.81;100.00;100211.78;5383857;26;20363;-79
2024/04/20 03:42:38;;;;;;;12.57;3.33;;;;;;;6.75;100.00;100205.44;5415173;26;20327;-80
2024/04/20 03:45:04;;;;;;;11.83;3.40;;;;;;;6.72;100.00;100213.94;5414887;26;20687;-79
2024/04/20 03:47:29;;;;;;;12.87;3.83;;;;;;;6.81;100.00;100219.84;5415087;26;20329;-79
2024/04/20 03:49:54;;;;;;;12.73;3.53;;;;;;;6.85;100.00;100219.16;5414986;26;20319;-79
2024/04/20 03:52:20;;;;;;;12.83;4.30;;;;;;;6.85;100.00;100221.84;5415229;26;20332;-79
2024/04/20 03:54:45;;;;;;;13.50;3.70;;;;;;;6.81;100.00;100227.94;5383594;26;20432;-79
2024/04/20 03:57:10;;;;;;;10.50;2.97;;;;;;;6.78;100.00;100227.31;5414895;26;20644;-79
2024/04/20 03:59:35;;;;;;;12.90;3.67;;;;;;;6.84;100.00;100232.88;5414649;26;20331;-79
2024/04/20 04:02:01;;;;;;;14.23;3.37;;;;;;;6.87;100.00;100229.72;5414848;26;20360;-79
2024/04/20 04:04:26;;;;;;;11.13;3.07;;;;;;;6.91;100.00;100247.06;5414494;26;20312;-80
2024/04/20 04:06:51;;;;;;;13.27;2.83;;;;;;;6.96;100.00;100247.22;5414880;26;20315;-79
2024/04/20 04:09:16;;;;;;;11.30;3.03;;;;;;;6.99;100.00;100255.66;5414656;26;20308;-80
2024/04/20 04:11:43;;;;;;;11.23;3.10;;;;;;;6.98;100.00;100255.91;5383193;26;20324;-79
2024/04/20 04:14:09;;;;;;;12.77;3.13;;;;;;;6.98;100.00;100267.47;5414587;26;20328;-80
2024/04/20 04:16:34;;;;;;;14.45;3.63;;;;;;;7.00;100.00;100260.00;5414608;26;20402;-80
2024/04/20 04:18:59;;;;;;;12.52;3.25;;;;;;;7.01;100.00;100256.28;5414265;26;20316;-79
2024/04/20 04:21:24;;;;;;;10.80;2.80;;;;;;;7.00;100.00;100254.63;5414404;26;20765;-78
2024/04/20 04:23:50;;;;;;;12.53;3.00;;;;;;;7.00;100.00;100267.25;5415271;26;20316;-78
2024/04/20 04:26:15;;;;;;;10.60;3.30;;;;;;;7.00;100.00;100265.41;5418038;26;20412;-78
2024/04/20 04:28:40;;;;;;;10.43;3.07;;;;;;;7.01;100.00;100272.44;5417804;26;20327;-78
2024/04/20 04:31:05;;;;;;;14.27;3.70;;;;;;;7.03;100.00;100275.72;5386496;26;20323;-78
2024/04/20 04:33:31;;;;;;;10.67;2.90;;;;;;;7.06;100.00;100279.81;5417804;26;20319;-78
2024/04/20 04:36:03;;;;;;;13.63;2.90;;;;;;;7.03;100.00;100286.50;5417859;26;20851;-78
2024/04/20 04:38:28;;;;;;;8.57;2.90;;;;;;;7.03;100.00;100285.66;5417566;26;20312;-78
2024/04/20 04:40:53;;;;;;;11.70;3.50;;;;;;;7.01;100.00;100285.91;5417520;26;20422;-78
2024/04/20 04:43:19;;;;;;;13.32;3.13;;;;;;;7.04;100.00;100290.03;5386209;26;20422;-78
2024/04/20 04:45:45;;;;;;;16.25;3.50;;;;;;;7.03;100.00;100291.88;5417557;26;20323;-78
2024/04/20 04:48:17;;;;;;;13.60;3.30;;;;;;;7.09;100.00;100301.75;5417661;26;20363;-78
2024/04/20 04:50:43;;;;;;;14.05;3.00;;;;;;;7.09;100.00;100306.31;5417741;26;20316;-78
2024/04/20 04:53:08;;;;;;;12.83;3.43;;;;;;;7.13;100.00;100311.03;5417482;26;20546;-78
2024/04/20 04:55:33;;;;;;;17.03;5.67;;;;;;;7.10;100.00;100310.66;5413673;26;20683;-78
2024/04/20 04:57:58;;;;;;;14.27;4.80;;;;;;;7.12;100.00;100317.47;5413534;26;20384;-79
2024/04/20 05:00:24;;;;;;;12.27;4.40;;;;;;;7.18;100.00;100321.13;5413287;26;20371;-78
2024/04/20 05:02:49;;;;;;;13.40;5.23;;;;;;;7.23;100.00;100322.13;5411477;26;21019;-78
2024/04/20 05:05:14;;;;;;;12.23;3.47;;;;;;;7.24;100.00;100328.34;5411472;26;20696;-80
2024/04/20 05:07:40;;;;;;;14.70;5.10;;;;;;;7.27;100.00;100327.88;5413270;26;20356;-79
2024/04/20 05:10:06;;;;;;;14.38;4.50;;;;;;;7.25;100.00;100338.88;5413604;26;20432;-79
2024/04/20 05:12:31;;;;;;;9.37;3.57;;;;;;;7.21;100.00;100343.06;5415653;26;20351;-79
2024/04/20 05:14:57;;;;;;;16.15;6.60;;;;;;;7.22;100.00;100342.03;5417005;26;20331;-79
2024/04/20 05:17:22;;;;;;;15.60;4.50;;;;;;;7.23;100.00;100342.84;5416074;26;20420;-79
2024/04/20 05:19:48;;;;;;;10.97;3.60;;;;;;;7.26;100.00;100353.19;5415041;26;20316;-79
2024/04/20 05:22:13;;;;;;;13.17;3.73;;;;;;;7.29;100.00;100361.63;5423407;26;20338;-79
2024/04/20 05:24:38;;;;;;;10.40;3.40;;;;;;;7.33;100.00;100367.41;5426397;26;20410;-79
2024/04/20 05:27:03;;;;;;;11.83;2.87;;;;;;;7.31;100.00;100373.00;5419640;26;20320;-79
2024/04/20 05:29:29;;;;;;;15.03;3.80;;;;;;;7.30;100.00;100378.63;5379762;26;20814;-79
2024/04/20 05:31:54;;;;;;;12.77;3.50;;;;;;;7.25;100.00;100373.91;5406685;26;20307;-79
2024/04/20 05:34:19;;;;;;;9.03;3.57;;;;;;;7.24;100.00;100374.94;5381576;26;20666;-79
2024/04/20 05:36:44;;;;;;;19.47;4.37;;;;;;;7.23;100.00;100381.41;5388613;26;20329;-79
2024/04/20 05:39:10;;;;;;;13.63;5.40;;;;;;;7.19;100.00;100380.22;5412489;26;20342;-80
2024/04/20 05:41:35;;;;;;;11.83;3.53;;;;;;;7.16;100.00;100379.81;5381367;26;20324;-80
2024/04/20 05:44:00;;;;;;;11.23;3.30;;;;;;;7.16;100.00;100377.97;5412580;26;20932;-79
2024/04/20 05:46:26;;;;;;;12.03;3.63;;;;;;;7.23;100.00;100389.50;5411522;26;20352;-79
2024/04/20 05:48:51;;;;;;;9.27;2.90;;;;;;;7.30;100.00;100394.81;5381276;26;20320;-79
2024/04/20 05:51:16;;;;;;;11.77;4.13;;;;;;;7.38;100.00;100394.50;5413745;26;20666;-79
2024/04/20 05:53:42;;;;;;;10.13;3.53;;;;;;;7.39;100.00;100395.31;5411418;26;20316;-79
2024/04/20 05:56:07;;;;;;;14.40;3.60;;;;;;;7.42;100.00;100393.00;5410769;26;20662;-78
2024/04/20 05:58:32;;;;;;;9.43;2.97;;;;;;;7.44;100.00;100395.47;5413644;26;20331;-79
2024/04/20 06:00:57;;;;;;;10.57;3.33;;;;;;;7.43;100.00;100393.81;5414798;26;20380;-79
2024/04/20 06:03:23;;;;;;;11.87;4.07;;;;;;;7.42;100.00;100405.66;5383514;26;20332;-79
2024/04/20 06:05:48;;;;;;;9.77;3.07;;;;;;;7.41;100.00;100412.13;5410604;26;20346;-79
2024/04/20 06:08:14;;;;;;;9.07;3.00;;;;;;;7.41;100.00;100415.59;5415180;26;20327;-79
2024/04/20 06:10:39;;;;;;;13.10;2.90;;;;;;;7.41;100.00;100420.19;5415887;26;20409;-80
2024/04/20 06:13:04;;;;;;;7.80;3.35;;;;;;;7.38;100.00;100426.00;5414494;26;20332;-79
2024/04/20 06:15:33;;;;;;;10.23;3.13;;;;;;;7.30;100.00;100425.28;5407620;26;20327;-79
2024/04/20 06:17:59;;;;;;;11.98;3.88;;;;;;;7.29;100.00;100425.50;5412874;26;20984;-79
2024/04/20 06:20:25;;;;;;;8.43;3.43;;;;;;;7.28;100.00;100430.06;5386120;26;20418;-80
2024/04/20 06:22:50;;;;;;;11.27;3.20;;;;;;;7.30;100.00;100429.84;5382290;26;20332;-79
2024/04/20 06:25:15;;;;;;;7.47;3.03;;;;;;;7.37;100.00;100425.22;5410447;26;20348;-80
2024/04/20 06:27:41;;;;;;;10.17;2.87;;;;;;;7.44;100.00;100425.97;5409681;26;20774;-79
2024/04/20 06:30:07;;;;;;;10.80;2.90;;;;;;;7.49;100.00;100434.19;5411147;26;20324;-79
2024/04/20 06:32:32;;;;;;;11.52;4.68;;;;;;;7.53;100.00;100429.19;5413950;26;20806;-78
2024/04/20 06:35:00;;;;;;;6.80;3.80;;;;;;;7.59;100.00;100439.06;5415806;26;20363;-78
2024/04/20 06:37:25;;;;;;;8.07;3.25;;;;;;;7.58;100.00;100438.22;5393734;26;20323;-79
2024/04/20 06:39:51;;;;;;;5.27;2.00;;;;;;;7.57;100.00;100438.47;5406841;26;20328;-79
2024/04/20 06:42:17;;;;;;;4.70;2.57;;;;;;;7.58;100.00;100437.41;5413499;26;20403;-80
2024/04/20 06:44:47;;;;;;;3.60;1.60;;;;;;;7.63;100.00;100442.94;5415524;26;20444;-79
2024/04/20 06:47:12;;;;;;;4.43;2.00;;;;;;;7.66;100.00;100446.03;5409545;26;20338;-80
2024/04/20 06:49:38;;;;;;;5.70;1.73;;;;;;;7.71;100.00;100446.16;5399155;26;20350;-79
2024/04/20 06:52:03;;;;;;;4.67;2.13;;;;;;;7.79;100.00;100445.84;5425248;26;20350;-79
2024/04/20 06:54:28;;;;;;;4.72;1.88;;;;;;;7.82;100.00;100444.56;5419520;26;20328;-79
2024/04/20 06:56:54;;;;;;;4.87;2.03;;;;;;;7.83;100.00;100448.94;5414770;26;20325;-79
2024/04/20 06:59:19;;;;;;;6.07;1.60;;;;;;;7.85;100.00;100452.22;5406454;26;20822;-78
2024/04/20 07:01:45;;;;;;;4.28;2.03;;;;;;;7.89;100.00;100455.28;5389719;26;20364;-78
2024/04/20 07:04:10;;;;;;;8.57;2.90;;;;;;;7.96;100.00;100461.41;5424152;26;20853;-79
2024/04/20 07:06:35;;;;;;;11.53;5.67;;;;;;;7.97;100.00;100457.69;5414265;26;20746;-79
2024/04/20 07:09:00;;;;;;;25.90;15.80;;;;;;;8.02;100.00;100472.13;5412735;26;20319;-78
2024/04/20 07:11:26;;;;;;;42.60;26.35;;;;;;;8.07;100.00;100464.16;5419799;26;20387;-80
2024/04/20 07:13:51;;;;;;;49.70;28.47;;;;;;;8.14;100.00;100470.28;5419772;26;22427;-78
2024/04/20 07:16:16;;;;;;;35.07;18.63;;;;;;;8.21;100.00;100476.44;5427623;26;20352;-78
2024/04/20 07:18:45;;;;;;;19.37;10.77;;;;;;;8.27;100.00;100480.06;5415980;26;20367;-78
2024/04/20 07:21:10;;;;;;;11.77;6.57;;;;;;;8.29;100.00;100486.94;5411695;26;20654;-77
2024/04/20 07:23:35;;;;;;;13.13;8.00;;;;;;;8.24;100.00;100491.34;5422145;26;20381;-78
2024/04/20 07:26:05;;;;;;;12.00;5.63;;;;;;;8.26;100.00;100500.06;5434081;26;20662;-77
2024/04/20 07:28:31;;;;;;;7.43;3.78;;;;;;;8.20;100.00;100496.38;5411660;26;20409;-77
2024/04/20 07:30:57;;;;;;;9.43;3.87;;;;;;;8.13;100.00;100508.31;5421536;26;20331;-78
2024/04/20 07:33:22;;;;;;;8.87;3.00;;;;;;;8.14;100.00;100508.09;5414910;26;20356;-77
2024/04/20 07:35:48;;;;;;;5.40;2.30;;;;;;;8.14;100.00;100515.34;5418164;26;20323;-77
2024/04/20 07:38:14;;;;;;;4.97;2.00;;;;;;;8.16;100.00;100511.41;5395629;26;20365;-77
2024/04/20 07:40:39;;;;;;;8.73;3.42;;;;;;;8.30;100.00;100517.44;5426499;26;20321;-78
2024/04/20 07:43:05;;;;;;;5.33;2.47;;;;;;;8.42;100.00;100518.34;5419798;26;20602;-77
2024/04/20 07:45:30;;;;;;;6.60;2.63;;;;;;;8.58;100.00;100517.69;5416173;26;20324;-77
2024/04/20 07:47:55;;;;;;;5.43;2.20;;;;;;;8.71;100.00;100517.50;5415802;26;20438;-77
2024/04/20 07:50:21;;;;;;;7.27;3.00;;;;;;;8.75;100.00;100526.78;5439025;26;20840;-77
2024/04/20 07:52:48;;;;;;;4.60;2.80;;;;;;;8.74;100.00;100532.41;5414874;26;20866;-77
2024/04/20 07:55:14;;;;;;;7.43;3.08;;;;;;;8.74;100.00;100535.94;5432801;26;20335;-77
2024/04/20 07:57:40;;;;;;;4.85;1.98;;;;;;;8.71;100.00;100540.97;5388781;26;20671;-77
2024/04/20 08:00:06;;;;;;;5.72;2.17;;;;;;;8.62;100.00;100545.91;5392853;26;20332;-77
2024/04/20 08:02:32;;;;;;;7.43;1.88;;;;;;;8.63;100.00;100552.09;5422448;26;20814;-77
2024/04/20 08:04:57;;;;;;;6.93;2.47;;;;;;;8.69;100.00;100559.31;5382624;26;20322;-77
2024/04/20 08:07:22;;;;;;;3.00;1.90;;;;;;;8.71;100.00;100562.59;5414584;26;20347;-78
2024/04/20 08:09:47;;;;;;;5.63;2.37;;;;;;;8.78;100.00;100568.72;5414513;26;20432;-77
2024/04/20 08:12:13;;;;;;;3.57;2.03;;;;;;;8.87;100.00;100572.75;5414459;26;20352;-77
2024/04/20 08:14:38;;;;;;;3.77;1.63;;;;;;;8.94;100.00;100576.19;5414196;26;20344;-78
2024/04/20 08:17:03;;;;;;;4.00;2.20;;;;;;;9.07;100.00;100570.56;5435079;26;20320;-78
2024/04/20 08:19:29;;;;;;;6.47;2.13;;;;;;;9.25;100.00;100569.66;5414156;26;20408;-77
2024/04/20 08:21:54;;;;;;;2.90;2.20;;;;;;;9.45;100.00;100575.53;5418607;26;20322;-76
2024/04/20 08:24:19;;;;;;;4.23;1.60;;;;;;;9.54;100.00;100574.16;5415620;26;20357;-77
2024/04/20 08:26:44;;;;;;;5.23;2.63;;;;;;;9.46;100.00;100571.78;5419174;26;20378;-76
2024/04/20 08:29:10;;;;;;;2.50;1.60;;;;;;;9.34;100.00;100573.66;5430951;26;20803;-76
2024/04/20 08:31:35;;;;;;;3.90;2.20;;;;;;;9.19;100.00;100587.63;5437583;26;20341;-76
2024/04/20 08:34:00;;;;;;;6.90;2.47;;;;;;;9.10;100.00;100594.44;5434004;26;20322;-77
2024/04/20 08:36:26;;;;;;;3.93;2.30;;;;;;;9.08;100.00;100595.72;5411686;26;20417;-77
2024/04/20 08:38:51;;;;;;;4.53;1.83;;;;;;;9.10;100.00;100605.25;5412158;26;20443;-75
2024/04/20 08:41:20;;;;;;;4.00;2.47;;;;;;;9.11;100.00;100600.66;5385653;26;20834;-76
2024/04/20 08:43:48;;;;;;;4.07;2.00;;;;;;;9.16;100.00;100606.19;5418295;26;20824;-76
2024/04/20 08:46:16;;;;;;;4.88;1.98;;;;;;;9.22;100.00;100611.50;5426403;26;20871;-76
2024/04/20 08:48:47;;;;;;;3.75;1.83;;;;;;;9.39;100.00;100609.75;5413547;26;20327;-77
2024/04/20 08:51:12;;;;;;;3.15;2.00;;;;;;;9.52;100.00;100613.28;5413599;26;20328;-77
2024/04/20 08:53:41;;;;;;;6.53;1.90;;;;;;;9.52;100.00;100622.22;5393316;26;20434;-77
2024/04/20 08:56:07;;;;;;;2.58;1.85;;;;;;;9.50;100.00;100612.72;5414145;26;20338;-76
2024/04/20 08:58:34;;;;;;;2.50;2.30;;;;;;;9.53;100.00;100625.78;5417162;26;20416;-77
2024/04/20 09:01:01;;;;;;;4.70;2.22;;;;;;;9.53;100.00;100628.47;5412084;26;20336;-77
2024/04/20 09:03:28;;;;;;;5.13;2.25;;;;;;;9.56;100.00;100626.13;5418057;26;20320;-76
2024/04/20 09:05:53;;;;;;;7.18;2.75;;;;;;;9.63;100.00;100632.25;5419081;26;20335;-74
2024/04/20 09:08:20;;;;;;;5.10;2.20;;;;;;;9.64;100.00;100636.63;5415414;26;20335;-74
2024/04/20 09:10:46;;;;;;;3.60;2.37;;;;;;;9.69;100.00;100644.84;5418199;26;20903;-74
2024/04/20 09:13:14;;;;;;;2.77;2.33;;;;;;;9.77;100.00;100646.38;5409661;26;20340;-74
2024/04/20 09:15:39;;;;;;;5.85;1.88;;;;;;;9.80;100.00;100646.75;5417727;26;20417;-78
2024/04/20 09:18:05;;;;;;;3.70;2.30;;;;;;;9.99;100.00;100644.72;5416162;26;20825;-76
2024/04/20 09:20:30;;;;;;;5.73;2.67;;;;;;;10.20;100.00;100656.88;5416551;26;20538;-76
2024/04/20 09:23:06;;;;;;;3.47;1.93;;;;;;;10.27;100.00;100655.66;5393003;26;20332;-78
2024/04/20 09:25:32;;;;;;;3.60;2.15;;;;;;;10.19;100.00;100657.94;5436537;26;20886;-76
2024/04/20 09:27:59;;;;;;;2.63;1.92;;;;;;;10.20;100.00;100659.59;5427546;26;20332;-75
2024/04/20 09:30:25;;;;;;;3.30;1.60;;;;;;;10.31;100.00;100664.97;5405090;26;20322;-77
2024/04/20 09:32:50;;;;;;;8.13;3.20;;;;;;;10.73;100.00;100667.47;5419970;26;20792;-73
2024/04/20 09:35:16;;;;;;;1.87;1.60;;;;;;;11.20;100.00;100660.78;5416142;26;20320;-76
2024/04/20 09:37:41;;;;;;;6.00;2.77;;;;;;;11.74;100.00;100664.72;5385740;26;20746;-73
2024/04/20 09:40:08;;;;;;;6.57;2.60;;;;;;;12.36;100.00;100659.94;5423337;26;20316;-73
2024/04/20 09:42:35;;;;;;;2.58;2.08;;;;;;;12.84;100.00;100661.88;5401779;26;20353;-74
2024/04/20 09:45:00;;;;;;;3.00;1.80;;;;;;;13.16;100.00;100669.31;5417036;26;20454;-74
2024/04/20 09:47:28;;;;;;;3.63;1.70;;;;;;;13.18;100.00;100676.16;5428267;26;20717;-75
2024/04/20 09:49:55;;;;;;;3.17;1.80;;;;;;;12.72;100.00;100668.53;5437516;26;20337;-74
2024/04/20 09:52:30;;;;;;;3.97;1.80;;;;;;;12.17;100.00;100676.78;5442668;26;20333;-76
2024/04/20 09:55:05;;;;;;;2.50;1.60;;;;;;;11.69;100.00;100674.66;5389128;26;20323;-76
2024/04/20 09:57:35;;;;;;;3.97;1.87;;;;;;;11.34;100.00;100678.41;5405033;26;21245;-76
2024/04/20 10:00:02;;;;;;;8.43;1.80;;;;;;;11.16;100.00;100675.91;5439194;26;20917;-76
2024/04/20 10:02:29;;;;;;;7.00;2.70;;;;;;;11.06;100.00;100675.72;5424023;26;20329;-76
2024/04/20 10:04:58;;;;;;;4.30;2.60;;;;;;;11.08;100.00;100673.59;5412549;26;20348;-76
2024/04/20 10:07:30;;;;;;;13.87;3.30;;;;;;;11.31;100.00;100680.78;5416720;26;20360;-77
2024/04/20 10:09:58;;;;;;;9.35;3.78;;;;;;;11.45;100.00;100682.13;5416960;26;20315;-76
2024/04/20 10:12:24;;;;;;;6.35;2.47;;;;;;;11.57;100.00;100673.88;5416559;26;20336;-76
2024/04/20 10:14:51;;;;;;;4.03;1.67;;;;;;;11.81;100.00;100676.25;5416782;26;20685;-76
2024/04/20 10:17:16;;;;;;;4.15;2.10;;;;;;;11.85;100.00;100668.44;5424677;26;20725;-77
2024/04/20 10:19:43;;;;;;;23.37;10.70;;;;;;;11.81;100.00;100667.28;5440966;26;20396;-76
2024/04/20 10:22:10;;;;;;;4.43;2.90;;;;;;;11.80;100.00;100669.16;5422710;26;20383;-76
2024/04/20 10:24:35;;;;;;;4.90;3.00;;;;;;;11.66;100.00;100672.41;5426390;26;20451;-75
2024/04/20 10:27:01;;;;;;;4.77;2.03;;;;;;;12.42;100.00;100669.78;5425839;26;20359;-75
2024/04/20 10:29:27;;;;;;;1.87;1.50;;;;;;;13.64;100.00;100671.94;5434752;26;20351;-77
2024/04/20 10:31:59;;;;;;;1.77;1.20;;;;;;;15.46;100.00;100667.38;5398085;26;20361;-76
2024/04/20 10:34:25;;;;;;;2.00;1.33;;;;;;;17.27;92.64;100665.28;5418664;26;20387;-76
2024/04/20 10:36:59;;;;;;;7.75;1.50;;;;;;;18.87;80.86;100669.53;5414687;26;20810;-78
2024/04/20 10:39:27;;;;;;;5.07;1.20;;;;;;;19.80;69.52;100671.44;5415247;26;20699;-77
2024/04/20 10:41:52;;;;;;;1.55;1.27;;;;;;;19.29;61.07;100668.66;5417504;26;20425;-76
2024/04/20 10:44:17;;;;;;;2.97;1.10;;;;;;;17.90;64.24;100677.16;5422147;26;20343;-75
2024/04/20 10:46:55;;;;;;;2.28;1.00;;;;;;;15.94;70.58;100671.47;5417561;26;20332;-74
2024/04/20 10:49:21;;;;;;;1.92;0.98;;;;;;;14.81;79.73;100687.16;5422712;26;20359;-75
2024/04/20 10:51:56;;;;;;;4.63;1.10;;;;;;;14.51;83.56;100680.47;5423584;26;20331;-74
2024/04/20 10:54:23;;;;;;;3.95;1.20;;;;;;;16.51;83.44;100673.84;5415470;26;20324;-75
2024/04/20 10:56:53;;;;;;;3.30;0.93;;;;;;;19.16;64.67;100671.03;5426120;26;20360;-74
2024/04/20 10:59:20;;;;;;;9.27;1.75;;;;;;;20.41;55.56;100679.47;5433870;26;20325;-74
2024/04/20 11:01:45;;;;;;;2.28;1.00;;;;;;;21.01;56.00;100677.41;5430556;26;20422;-74
2024/04/20 11:04:11;;;;;;;2.75;0.85;;;;;;;20.33;50.45;100677.41;5430444;26;20328;-74
2024/04/20 11:06:37;;;;;;;1.77;0.75;;;;;;;18.24;52.08;100679.84;5415920;26;20368;-74
2024/04/20 11:09:03;;;;;;;3.53;1.47;;;;;;;16.47;58.03;100679.03;5420745;26;20781;-76
2024/04/20 11:11:28;;;;;;;2.07;1.10;;;;;;;15.43;64.91;100678.84;5392033;26;20371;-75
2024/04/20 11:14:00;;;;;;;3.53;1.20;;;;;;;14.74;69.26;100675.66;5384399;26;20731;-74
2024/04/20 11:16:29;;;;;;;2.25;1.13;;;;;;;14.11;72.19;100677.47;5414813;26;20347;-74